Main page
METAR-TAF:

METAR-TAF

Airports :

Carcassonne Airport

Carcassonne, France

latitude: 43-13N, longitude: 002-19E, elevation: 130 m

Current weather observation

The report was made 41 minutes ago, at 05:00 UTC
Wind 5 kt from the East
Temperature 19°C
Humidity 88%
Pressure 1019 hPa
Visibility: 9000 m

METAR: LFMK 240500Z AUTO 08005KT 9000 NSC 19/17 Q1019 NOSIG

Time: 07:41 (05:41 UTC)

Forecast

The report was made 3 hours and 41 minutes ago, at 02:00 UTC
Forecast valid from 24 at 03 UTC to 25 at 03 UTC
Wind 10 kt from the East
Visibility 10 km or more
no clouds below 1500 m and no cumulonimbus

TAF: LFMK 240200Z 2403/2503 09010KT CAVOK

Weather observations and forecasts of more than 4000 airports (METAR and TAF reports).

The available stations are represented by yellow and red dots on the map.

Hover mouse over dot to see the name of the station.

Then click to see weather observations and forecasts.

To change the map : click on the green buttons with a black cross to zoom in, on the green button with a dash to zoom out, or on the green arrows for adjacent maps.


METAR-TAF: